Time;durP1;ratioP1;P1;durP2;ratioP2;P2;SDS_P1;SDS_P2;PMS_P1;PMS_P2;Temp;Humidity;BMP_temperature;BMP_pressure;BME280_temperature;BME280_humidity;BME280_pressure;Samples;Min_cycle;Max_cycle;Signal;HPM_P1;HPM_P2
2023/04/25 00:01:21;;;;;;;8.88;4.40;;;;;;;;;;5016214;28;20046;-59
2023/04/25 00:03:47;;;;;;;6.18;4.22;;;;;;;;;;5015139;28;20685;-59
2023/04/25 00:06:13;;;;;;;8.57;4.10;;;;;;;;;;5031800;28;20512;-59
2023/04/25 00:08:40;;;;;;;5.43;3.13;;;;;;;;;;5045677;28;20049;-59
2023/04/25 00:11:06;;;;;;;6.10;3.50;;;;;;;;;;5015287;28;20121;-59
2023/04/25 00:13:33;;;;;;;7.85;3.55;;;;;;;;;;5014189;28;20121;-60
2023/04/25 00:16:00;;;;;;;5.32;3.15;;;;;;;;;;5015047;28;20532;-59
2023/04/25 00:18:28;;;;;;;7.30;4.03;;;;;;;;;;5014544;28;20098;-59
2023/04/25 00:20:55;;;;;;;9.75;3.22;;;;;;;;;;5015280;28;20447;-59
2023/04/25 00:23:21;;;;;;;5.47;3.60;;;;;;;;;;5014976;28;20057;-59
2023/04/25 00:25:48;;;;;;;6.82;3.42;;;;;;;;;;5013477;28;20043;-59
2023/04/25 00:28:15;;;;;;;8.77;3.25;;;;;;;;;;5015834;28;20559;-59
2023/04/25 00:30:41;;;;;;;13.18;4.03;;;;;;;;;;5015347;28;20048;-59
2023/04/25 00:33:08;;;;;;;7.88;4.20;;;;;;;;;;5014706;28;20051;-59
2023/04/25 00:35:34;;;;;;;10.32;3.47;;;;;;;;;;5014848;28;20540;-59
2023/04/25 00:38:00;;;;;;;7.75;3.20;;;;;;;;;;5015655;28;20684;-59
2023/04/25 00:40:26;;;;;;;6.72;3.75;;;;;;;;;;5014526;28;20123;-59
2023/04/25 00:42:53;;;;;;;9.88;3.50;;;;;;;;;;5014579;28;20663;-59
2023/04/25 00:45:20;;;;;;;9.63;3.17;;;;;;;;;;5014501;28;20077;-59
2023/04/25 00:47:47;;;;;;;9.60;4.05;;;;;;;;;;5013145;28;20120;-59
2023/04/25 00:50:14;;;;;;;5.88;3.10;;;;;;;;;;5013354;28;20042;-59
2023/04/25 00:52:42;;;;;;;7.28;3.45;;;;;;;;;;5014391;28;20041;-59
2023/04/25 00:55:08;;;;;;;4.28;2.63;;;;;;;;;;5014755;28;20046;-59
2023/04/25 00:57:35;;;;;;;9.60;3.20;;;;;;;;;;5014583;28;20528;-59
2023/04/25 01:00:01;;;;;;;6.20;2.90;;;;;;;;;;5014758;28;20034;-59
2023/04/25 01:02:27;;;;;;;7.90;3.33;;;;;;;;;;5013844;28;20050;-59
2023/04/25 01:04:53;;;;;;;7.93;3.38;;;;;;;;;;5014562;28;20153;-59
2023/04/25 01:07:20;;;;;;;9.15;3.90;;;;;;;;;;5014897;28;20049;-60
2023/04/25 01:09:46;;;;;;;8.77;3.25;;;;;;;;;;5015370;28;20522;-59
2023/04/25 01:12:14;;;;;;;5.53;3.35;;;;;;;;;;5015160;28;20695;-59
2023/04/25 01:14:40;;;;;;;5.85;3.40;;;;;;;;;;5013433;28;20049;-59
2023/04/25 01:17:07;;;;;;;6.63;2.45;;;;;;;;;;5014001;28;20053;-60
2023/04/25 01:19:33;;;;;;;11.40;3.60;;;;;;;;;;5029814;28;20048;-59
2023/04/25 01:21:59;;;;;;;8.57;3.45;;;;;;;;;;5012487;28;20662;-58
2023/04/25 01:24:26;;;;;;;6.03;2.75;;;;;;;;;;5014517;28;20041;-58
2023/04/25 01:26:52;;;;;;;5.47;3.10;;;;;;;;;;5014523;28;20129;-58
2023/04/25 01:29:21;;;;;;;9.65;3.33;;;;;;;;;;5014652;28;20046;-58
2023/04/25 01:31:47;;;;;;;8.18;4.00;;;;;;;;;;5014999;28;20050;-58
2023/04/25 01:34:14;;;;;;;5.00;2.70;;;;;;;;;;5013814;28;20496;-61
2023/04/25 01:36:40;;;;;;;13.05;3.67;;;;;;;;;;5014739;28;20100;-59
2023/04/25 01:39:06;;;;;;;6.10;3.05;;;;;;;;;;5014768;28;20120;-61
2023/04/25 01:41:34;;;;;;;8.35;3.55;;;;;;;;;;5014327;28;20116;-58
2023/04/25 01:44:00;;;;;;;8.30;2.95;;;;;;;;;;5014009;28;20111;-58
2023/04/25 01:46:27;;;;;;;8.43;3.05;;;;;;;;;;5013812;28;20587;-58
2023/04/25 01:48:53;;;;;;;6.75;3.15;;;;;;;;;;5014242;28;20072;-58
2023/04/25 01:51:19;;;;;;;7.53;3.67;;;;;;;;;;5014367;28;20037;-58
2023/04/25 01:53:45;;;;;;;5.88;3.15;;;;;;;;;;5014453;28;20046;-61
2023/04/25 01:56:11;;;;;;;6.68;3.75;;;;;;;;;;5013853;28;20046;-57
2023/04/25 01:58:37;;;;;;;8.98;3.78;;;;;;;;;;5013965;28;20046;-58
2023/04/25 02:01:03;;;;;;;8.70;3.33;;;;;;;;;;5013992;28;20173;-57
2023/04/25 02:03:30;;;;;;;7.78;3.20;;;;;;;;;;5014195;28;20524;-58
2023/04/25 02:05:56;;;;;;;8.68;6.15;;;;;;;;;;5013814;28;20281;-58
2023/04/25 02:08:22;;;;;;;11.20;3.20;;;;;;;;;;5014679;28;20041;-57
2023/04/25 02:10:48;;;;;;;7.57;2.90;;;;;;;;;;5010948;28;20046;-58
2023/04/25 02:13:14;;;;;;;5.95;2.90;;;;;;;;;;5013274;28;20876;-58
2023/04/25 02:15:41;;;;;;;12.05;4.07;;;;;;;;;;5014563;28;20046;-59
2023/04/25 02:18:07;;;;;;;7.57;3.65;;;;;;;;;;5014437;28;20038;-59
2023/04/25 02:20:33;;;;;;;8.18;4.80;;;;;;;;;;5013820;28;20042;-59
2023/04/25 02:22:59;;;;;;;6.53;3.30;;;;;;;;;;5014109;28;20129;-58
2023/04/25 02:25:25;;;;;;;11.68;3.53;;;;;;;;;;5014050;28;20117;-59
2023/04/25 02:27:51;;;;;;;10.85;5.28;;;;;;;;;;5013948;28;20104;-58
2023/04/25 02:30:17;;;;;;;6.70;3.30;;;;;;;;;;5014143;28;20052;-59
2023/04/25 02:32:44;;;;;;;8.27;3.63;;;;;;;;;;5013636;28;20034;-59
2023/04/25 02:35:10;;;;;;;15.95;5.82;;;;;;;;;;5017402;28;20511;-59
2023/04/25 02:37:37;;;;;;;6.35;4.80;;;;;;;;;;5015989;28;20519;-59
2023/04/25 02:40:04;;;;;;;8.00;4.18;;;;;;;;;;5017554;28;20618;-58
2023/04/25 02:42:30;;;;;;;14.18;3.80;;;;;;;;;;5015756;28;20120;-58
2023/04/25 02:44:56;;;;;;;8.43;4.97;;;;;;;;;;5015165;28;20056;-59
2023/04/25 02:47:22;;;;;;;8.95;4.25;;;;;;;;;;5013360;28;20041;-59
2023/04/25 02:49:49;;;;;;;7.25;3.75;;;;;;;;;;5017709;28;20638;-59
2023/04/25 02:52:15;;;;;;;11.13;4.22;;;;;;;;;;5016748;28;20046;-59
2023/04/25 02:54:41;;;;;;;8.05;3.20;;;;;;;;;;5016674;28;20072;-59
2023/04/25 02:57:07;;;;;;;7.57;3.75;;;;;;;;;;5017574;28;20072;-59
2023/04/25 02:59:33;;;;;;;7.00;3.58;;;;;;;;;;5016163;28;20046;-58
2023/04/25 03:01:59;;;;;;;8.70;3.78;;;;;;;;;;5016756;28;20578;-59
2023/04/25 03:04:26;;;;;;;14.48;4.72;;;;;;;;;;5016915;28;20045;-59
2023/04/25 03:06:52;;;;;;;13.52;5.97;;;;;;;;;;5015560;28;20121;-59
2023/04/25 03:09:19;;;;;;;21.75;10.90;;;;;;;;;;5016977;28;20117;-59
2023/04/25 03:11:45;;;;;;;18.27;7.95;;;;;;;;;;5016420;28;20041;-58
2023/04/25 03:14:11;;;;;;;8.38;5.05;;;;;;;;;;5016620;28;20042;-58
2023/04/25 03:16:37;;;;;;;16.30;8.35;;;;;;;;;;5016341;28;20046;-58
2023/04/25 03:19:04;;;;;;;12.07;6.60;;;;;;;;;;5016539;28;20176;-59
2023/04/25 03:21:34;;;;;;;10.65;6.07;;;;;;;;;;5017290;28;20052;-58
2023/04/25 03:24:02;;;;;;;14.85;6.38;;;;;;;;;;5017513;28;20042;-58
2023/04/25 03:26:28;;;;;;;15.10;8.32;;;;;;;;;;5016874;28;20590;-59
2023/04/25 03:28:54;;;;;;;19.35;8.68;;;;;;;;;;5016495;28;20140;-59
2023/04/25 03:31:20;;;;;;;16.90;7.80;;;;;;;;;;5008542;28;20038;-58
2023/04/25 03:33:46;;;;;;;12.88;5.85;;;;;;;;;;5015907;28;20040;-59
2023/04/25 03:36:12;;;;;;;12.57;5.13;;;;;;;;;;5017112;28;20042;-58
2023/04/25 03:38:38;;;;;;;13.23;4.68;;;;;;;;;;5016048;28;20044;-59
2023/04/25 03:41:05;;;;;;;11.80;5.30;;;;;;;;;;5009611;28;20046;-58
2023/04/25 03:43:31;;;;;;;16.15;5.07;;;;;;;;;;5031148;28;20117;-59
2023/04/25 03:45:57;;;;;;;9.98;4.63;;;;;;;;;;5016116;28;20041;-59
2023/04/25 03:48:26;;;;;;;14.15;5.30;;;;;;;;;;5016309;28;20619;-59
2023/04/25 03:50:53;;;;;;;6.85;4.10;;;;;;;;;;5015576;28;20520;-59
2023/04/25 03:53:19;;;;;;;6.10;3.22;;;;;;;;;;5015548;28;20049;-59
2023/04/25 03:55:45;;;;;;;12.02;4.05;;;;;;;;;;5015928;28;20125;-58
2023/04/25 03:58:12;;;;;;;11.52;4.88;;;;;;;;;;5016248;28;20107;-59
2023/04/25 04:00:38;;;;;;;12.85;5.15;;;;;;;;;;5014877;28;20038;-59
2023/04/25 04:03:07;;;;;;;10.32;4.93;;;;;;;;;;5014825;28;20076;-58
2023/04/25 04:05:33;;;;;;;8.95;4.18;;;;;;;;;;5014795;28;20148;-59
2023/04/25 04:07:59;;;;;;;11.50;4.75;;;;;;;;;;5015283;28;20859;-59
2023/04/25 04:10:26;;;;;;;6.30;3.47;;;;;;;;;;5015675;28;20045;-58
2023/04/25 04:12:52;;;;;;;8.80;4.10;;;;;;;;;;5015235;28;20553;-58
2023/04/25 04:15:18;;;;;;;7.60;3.78;;;;;;;;;;5014700;28;20512;-60
2023/04/25 04:17:44;;;;;;;7.65;4.88;;;;;;;;;;5013857;28;20056;-59
2023/04/25 04:20:10;;;;;;;9.27;4.20;;;;;;;;;;5015199;28;20090;-58
2023/04/25 04:22:37;;;;;;;6.57;3.97;;;;;;;;;;5015068;28;20129;-59
2023/04/25 04:25:05;;;;;;;7.32;3.92;;;;;;;;;;5031505;28;20060;-59
2023/04/25 04:27:31;;;;;;;16.00;3.67;;;;;;;;;;5015092;28;20056;-58
2023/04/25 04:29:57;;;;;;;12.98;4.60;;;;;;;;;;5014295;28;20037;-59
2023/04/25 04:32:25;;;;;;;11.77;4.57;;;;;;;;;;5014668;28;20129;-59
2023/04/25 04:34:52;;;;;;;9.80;4.32;;;;;;;;;;5014818;28;20132;-58
2023/04/25 04:37:18;;;;;;;7.90;3.70;;;;;;;;;;5015159;28;20505;-58
2023/04/25 04:39:45;;;;;;;7.82;3.80;;;;;;;;;;5015178;28;20056;-59
2023/04/25 04:42:11;;;;;;;11.60;3.97;;;;;;;;;;5014603;28;20556;-60
2023/04/25 04:44:38;;;;;;;6.03;3.85;;;;;;;;;;5014654;28;20121;-60
2023/04/25 04:47:06;;;;;;;8.82;3.63;;;;;;;;;;5030914;28;20136;-60
2023/04/25 04:49:32;;;;;;;11.77;3.83;;;;;;;;;;5014511;28;20105;-60
2023/04/25 04:51:59;;;;;;;7.20;3.28;;;;;;;;;;5046026;28;20180;-60
2023/04/25 04:54:27;;;;;;;7.13;3.95;;;;;;;;;;5014005;28;20424;-59
2023/04/25 04:56:53;;;;;;;9.75;3.80;;;;;;;;;;5012836;28;20100;-60
2023/04/25 04:59:19;;;;;;;7.95;3.30;;;;;;;;;;5015128;28;20052;-60
2023/04/25 05:01:46;;;;;;;11.48;4.90;;;;;;;;;;5015836;28;20038;-59
2023/04/25 05:04:12;;;;;;;9.57;3.55;;;;;;;;;;5014169;28;20042;-59
2023/04/25 05:06:38;;;;;;;8.70;4.95;;;;;;;;;;5014998;28;20143;-59
2023/04/25 05:09:05;;;;;;;10.15;3.45;;;;;;;;;;5015555;28;20121;-60
2023/04/25 05:11:31;;;;;;;5.80;3.50;;;;;;;;;;5007895;28;20046;-59
2023/04/25 05:13:57;;;;;;;8.45;3.65;;;;;;;;;;5013539;28;20042;-60
2023/04/25 05:16:23;;;;;;;9.05;5.28;;;;;;;;;;5015819;28;20049;-60
2023/04/25 05:18:49;;;;;;;12.80;6.18;;;;;;;;;;5014014;28;20053;-60
2023/04/25 05:21:15;;;;;;;7.97;3.67;;;;;;;;;;5015438;28;20046;-60
2023/04/25 05:23:41;;;;;;;9.70;4.47;;;;;;;;;;5014369;28;20550;-60
2023/04/25 05:26:13;;;;;;;10.07;5.40;;;;;;;;;;5015912;28;20123;-60
2023/04/25 05:28:40;;;;;;;7.63;3.53;;;;;;;;;;5013777;28;20100;-60
2023/04/25 05:31:06;;;;;;;7.28;3.47;;;;;;;;;;5014143;28;20679;-60
2023/04/25 05:33:33;;;;;;;10.90;4.47;;;;;;;;;;5014192;28;20488;-60
2023/04/25 05:35:59;;;;;;;10.98;4.60;;;;;;;;;;5014317;28;20105;-59
2023/04/25 05:38:25;;;;;;;9.95;4.55;;;;;;;;;;5013368;28;20482;-60
2023/04/25 05:40:51;;;;;;;7.70;4.88;;;;;;;;;;5014352;28;20096;-60
2023/04/25 05:43:18;;;;;;;12.88;5.93;;;;;;;;;;5012532;28;20058;-60
2023/04/25 05:45:44;;;;;;;10.57;4.03;;;;;;;;;;5013465;28;20038;-60
2023/04/25 05:48:10;;;;;;;7.68;4.03;;;;;;;;;;5029195;28;20038;-60
2023/04/25 05:50:36;;;;;;;15.23;4.88;;;;;;;;;;5014266;28;20042;-60
2023/04/25 05:53:02;;;;;;;7.82;3.70;;;;;;;;;;5014080;28;20125;-60
2023/04/25 05:55:28;;;;;;;6.88;3.72;;;;;;;;;;5014743;28;20130;-60
2023/04/25 05:57:54;;;;;;;9.18;3.92;;;;;;;;;;5012301;28;21427;-60
2023/04/25 06:00:22;;;;;;;11.48;3.85;;;;;;;;;;5014786;28;20551;-60
2023/04/25 06:02:48;;;;;;;7.32;4.13;;;;;;;;;;5013108;28;20106;-60
2023/04/25 06:05:14;;;;;;;6.15;4.00;;;;;;;;;;5015292;28;20050;-60
2023/04/25 06:07:40;;;;;;;9.15;4.45;;;;;;;;;;5014496;28;20053;-60
2023/04/25 06:10:07;;;;;;;9.80;4.80;;;;;;;;;;5017457;28;20346;-60
2023/04/25 06:12:33;;;;;;;8.32;4.70;;;;;;;;;;5010247;28;20570;-61
2023/04/25 06:15:00;;;;;;;7.20;4.35;;;;;;;;;;5017483;28;20046;-60
2023/04/25 06:17:26;;;;;;;9.88;4.30;;;;;;;;;;5016489;28;20076;-60
2023/04/25 06:19:52;;;;;;;5.35;3.17;;;;;;;;;;5009494;28;20628;-60
2023/04/25 06:22:18;;;;;;;6.90;4.43;;;;;;;;;;5017702;28;20046;-60
2023/04/25 06:24:45;;;;;;;9.13;4.07;;;;;;;;;;5016865;28;20078;-60
2023/04/25 06:27:11;;;;;;;5.63;4.07;;;;;;;;;;5016091;28;20038;-60
2023/04/25 06:29:38;;;;;;;7.75;4.45;;;;;;;;;;5016614;28;20092;-60
2023/04/25 06:32:04;;;;;;;9.57;4.22;;;;;;;;;;5017114;28;20523;-61
2023/04/25 06:34:30;;;;;;;9.57;4.70;;;;;;;;;;5016370;28;20076;-60
2023/04/25 06:36:57;;;;;;;7.38;4.35;;;;;;;;;;5016898;28;20461;-60
2023/04/25 06:39:24;;;;;;;10.15;4.00;;;;;;;;;;5016977;28;20512;-61
2023/04/25 06:41:50;;;;;;;8.10;3.65;;;;;;;;;;5015845;28;20045;-60
2023/04/25 06:44:16;;;;;;;10.45;4.43;;;;;;;;;;5016020;28;20058;-60
2023/04/25 06:46:43;;;;;;;8.52;4.55;;;;;;;;;;5018256;28;20046;-61
2023/04/25 06:49:09;;;;;;;6.20;4.03;;;;;;;;;;5016638;28;20088;-60
2023/04/25 06:51:35;;;;;;;5.63;3.80;;;;;;;;;;5018609;28;20111;-60
2023/04/25 06:54:01;;;;;;;7.97;4.10;;;;;;;;;;5017092;28;20554;-60
2023/04/25 06:56:28;;;;;;;7.22;4.47;;;;;;;;;;5009266;28;20080;-60
2023/04/25 06:58:54;;;;;;;6.70;3.63;;;;;;;;;;5009652;28;20294;-60
2023/04/25 07:01:20;;;;;;;6.90;3.80;;;;;;;;;;5016554;28;20424;-60
2023/04/25 07:03:46;;;;;;;7.22;4.35;;;;;;;;;;5016933;28;20543;-60
2023/04/25 07:06:12;;;;;;;6.00;3.97;;;;;;;;;;5016826;28;20052;-60
2023/04/25 07:08:38;;;;;;;5.03;2.42;;;;;;;;;;5016936;28;20058;-60
2023/04/25 07:11:05;;;;;;;8.30;4.75;;;;;;;;;;5016839;28;20930;-60
2023/04/25 07:13:31;;;;;;;6.38;3.10;;;;;;;;;;5016909;28;20045;-61
2023/04/25 07:15:57;;;;;;;5.82;2.67;;;;;;;;;;5015956;28;20041;-60
2023/04/25 07:18:23;;;;;;;6.97;3.53;;;;;;;;;;5015512;28;20042;-61
2023/04/25 07:20:50;;;;;;;7.03;3.20;;;;;;;;;;5015455;28;20038;-60
2023/04/25 07:23:16;;;;;;;5.05;3.25;;;;;;;;;;5017840;28;20108;-60
2023/04/25 07:25:42;;;;;;;6.22;3.30;;;;;;;;;;5030685;28;20038;-60
2023/04/25 07:28:08;;;;;;;6.20;3.67;;;;;;;;;;5017071;28;20068;-61
2023/04/25 07:30:34;;;;;;;6.47;3.92;;;;;;;;;;5016115;28;20128;-60
2023/04/25 07:33:00;;;;;;;7.50;2.72;;;;;;;;;;5016641;28;20117;-60
2023/04/25 07:35:27;;;;;;;6.70;3.15;;;;;;;;;;5016227;28;20049;-60
2023/04/25 07:37:53;;;;;;;5.65;3.70;;;;;;;;;;5016045;28;20709;-60
2023/04/25 07:40:19;;;;;;;8.10;4.38;;;;;;;;;;5008183;28;20073;-60
2023/04/25 07:42:45;;;;;;;4.15;2.70;;;;;;;;;;5016380;28;20058;-60
2023/04/25 07:45:11;;;;;;;4.82;3.20;;;;;;;;;;5016290;28;20588;-60
2023/04/25 07:47:38;;;;;;;6.90;3.00;;;;;;;;;;5016247;28;20523;-60
2023/04/25 07:50:05;;;;;;;9.43;3.35;;;;;;;;;;5016328;28;20745;-60
2023/04/25 07:52:31;;;;;;;7.18;3.22;;;;;;;;;;5015774;28;20057;-61
2023/04/25 07:54:58;;;;;;;5.97;3.17;;;;;;;;;;5014650;28;20038;-61
2023/04/25 07:57:24;;;;;;;5.35;3.25;;;;;;;;;;5015935;28;20532;-61
2023/04/25 07:59:50;;;;;;;5.63;3.17;;;;;;;;;;5015748;28;20069;-60
2023/04/25 08:02:16;;;;;;;5.75;3.80;;;;;;;;;;5015316;28;20042;-60
2023/04/25 08:04:42;;;;;;;6.85;4.07;;;;;;;;;;5015394;28;20528;-60
2023/04/25 08:07:09;;;;;;;11.13;3.67;;;;;;;;;;5016052;28;20492;-61
2023/04/25 08:09:36;;;;;;;5.72;3.35;;;;;;;;;;5014908;28;21983;-61
2023/04/25 08:12:02;;;;;;;8.15;3.60;;;;;;;;;;5014381;28;20054;-60
2023/04/25 08:14:31;;;;;;;3.80;2.50;;;;;;;;;;5015735;28;20129;-60
2023/04/25 08:16:57;;;;;;;5.85;3.05;;;;;;;;;;5014560;28;20046;-61
2023/04/25 08:19:23;;;;;;;5.03;3.10;;;;;;;;;;5016173;28;20042;-60
2023/04/25 08:21:51;;;;;;;5.32;3.10;;;;;;;;;;5014810;28;20132;-60
2023/04/25 08:24:17;;;;;;;4.55;2.97;;;;;;;;;;5016293;28;20046;-61
2023/04/25 08:26:43;;;;;;;7.60;3.20;;;;;;;;;;5014578;28;20038;-61
2023/04/25 08:29:09;;;;;;;4.68;1.98;;;;;;;;;;5015637;28;20528;-60
2023/04/25 08:31:35;;;;;;;4.68;3.08;;;;;;;;;;5014065;28;20153;-60
2023/04/25 08:34:01;;;;;;;5.47;3.35;;;;;;;;;;5016290;28;20443;-60
2023/04/25 08:36:28;;;;;;;5.38;3.10;;;;;;;;;;5013520;28;21111;-60
2023/04/25 08:38:54;;;;;;;4.43;2.90;;;;;;;;;;5015000;28;20945;-60
2023/04/25 08:41:22;;;;;;;6.03;2.83;;;;;;;;;;5014005;28;20108;-60
2023/04/25 08:43:49;;;;;;;9.52;3.08;;;;;;;;;;5014413;28;20057;-61
2023/04/25 08:46:17;;;;;;;4.80;3.40;;;;;;;;;;5014418;28;20608;-60
2023/04/25 08:48:45;;;;;;;4.90;3.03;;;;;;;;;;5016313;28;20056;-60
2023/04/25 08:51:14;;;;;;;4.07;2.95;;;;;;;;;;5014466;28;20110;-60
2023/04/25 08:53:42;;;;;;;5.32;3.50;;;;;;;;;;5014379;28;20046;-60
2023/04/25 08:56:09;;;;;;;5.88;3.13;;;;;;;;;;5013607;28;20042;-60
2023/04/25 08:58:36;;;;;;;4.18;2.72;;;;;;;;;;5016361;28;20046;-60
2023/04/25 09:01:02;;;;;;;5.40;3.28;;;;;;;;;;5014657;28;20034;-60
2023/04/25 09:03:28;;;;;;;4.35;3.05;;;;;;;;;;5016040;28;20096;-60
2023/04/25 09:05:55;;;;;;;5.25;2.65;;;;;;;;;;5014403;28;20479;-61
2023/04/25 09:08:22;;;;;;;8.55;3.60;;;;;;;;;;5014467;28;20088;-60
2023/04/25 09:10:48;;;;;;;5.28;3.28;;;;;;;;;;5014015;28;20045;-60
2023/04/25 09:13:15;;;;;;;7.63;3.25;;;;;;;;;;5015089;28;20038;-61
2023/04/25 09:15:51;;;;;;;6.20;3.63;;;;;;;;;;5013891;28;20468;-60
2023/04/25 09:18:26;;;;;;;4.22;2.58;;;;;;;;;;5014848;28;20042;-60
2023/04/25 09:20:56;;;;;;;8.82;3.83;;;;;;;;;;5013946;28;20057;-60
2023/04/25 09:23:23;;;;;;;6.40;2.53;;;;;;;;;;5006967;28;20042;-60
2023/04/25 09:25:50;;;;;;;6.03;2.90;;;;;;;;;;5013520;28;20062;-61
2023/04/25 09:28:16;;;;;;;6.75;2.80;;;;;;;;;;5015378;28;20042;-60
2023/04/25 09:30:42;;;;;;;4.07;2.10;;;;;;;;;;5014037;28;20492;-60
2023/04/25 09:33:10;;;;;;;4.35;3.00;;;;;;;;;;5013621;28;20046;-60
2023/04/25 09:35:37;;;;;;;4.90;2.83;;;;;;;;;;5013824;28;20038;-60
2023/04/25 09:38:07;;;;;;;4.80;3.20;;;;;;;;;;5014074;28;21028;-61
2023/04/25 09:40:33;;;;;;;7.72;4.00;;;;;;;;;;5014090;28;20126;-60
2023/04/25 09:43:00;;;;;;;5.38;3.15;;;;;;;;;;5013320;28;20050;-60
2023/04/25 09:45:26;;;;;;;7.38;3.55;;;;;;;;;;5014654;28;20098;-60
2023/04/25 09:47:57;;;;;;;7.65;3.80;;;;;;;;;;5013637;28;20580;-60
2023/04/25 09:50:24;;;;;;;6.90;3.70;;;;;;;;;;5013522;28;20042;-61
2023/04/25 09:53:05;;;;;;;7.90;2.97;;;;;;;;;;5013257;28;20339;-60
2023/04/25 09:55:32;;;;;;;7.90;3.45;;;;;;;;;;5013821;28;20125;-58
2023/04/25 09:58:01;;;;;;;7.40;2.97;;;;;;;;;;5013120;28;20045;-59
2023/04/25 10:00:28;;;;;;;8.88;3.60;;;;;;;;;;5013130;28;20428;-59
2023/04/25 10:02:55;;;;;;;5.07;3.15;;;;;;;;;;5013446;28;20363;-59
2023/04/25 10:05:21;;;;;;;5.18;3.40;;;;;;;;;;5014075;28;20042;-59
2023/04/25 10:07:47;;;;;;;5.20;3.17;;;;;;;;;;5013095;28;20588;-59
2023/04/25 10:10:13;;;;;;;5.40;2.53;;;;;;;;;;5013530;28;20530;-59
2023/04/25 10:12:40;;;;;;;3.90;2.65;;;;;;;;;;5012654;28;20090;-59
2023/04/25 10:15:07;;;;;;;6.63;2.75;;;;;;;;;;5013407;28;20046;-59
2023/04/25 10:17:34;;;;;;;6.18;3.28;;;;;;;;;;5013354;28;20042;-59
2023/04/25 10:20:08;;;;;;;6.78;2.45;;;;;;;;;;5013585;28;20186;-58
2023/04/25 10:22:36;;;;;;;6.38;3.60;;;;;;;;;;5014124;28;20093;-59
2023/04/25 10:25:05;;;;;;;4.47;2.05;;;;;;;;;;5014063;28;20176;-59
2023/04/25 10:27:32;;;;;;;8.82;3.50;;;;;;;;;;5014049;28;20053;-59
2023/04/25 10:30:24;;;;;;;7.07;4.50;;;;;;;;;;5013604;28;20058;-59
2023/04/25 10:32:50;;;;;;;;;;;;;;;;;;5013036;28;20053;-60
2023/04/25 10:35:17;;;;;;;9.20;4.45;;;;;;;;;;5028872;28;19929;-59
2023/04/25 10:37:57;;;;;;;5.07;3.03;;;;;;;;;;5014084;28;20615;-59
2023/04/25 10:40:23;;;;;;;6.00;3.78;;;;;;;;;;5013996;28;20049;-59
2023/04/25 10:42:52;;;;;;;6.80;3.20;;;;;;;;;;5013240;28;20058;-59
2023/04/25 10:45:18;;;;;;;9.93;3.13;;;;;;;;;;5014763;28;20049;-58
2023/04/25 10:47:45;;;;;;;6.63;2.90;;;;;;;;;;5012391;28;20053;-59
2023/04/25 10:50:11;;;;;;;8.13;3.05;;;;;;;;;;5014317;28;20113;-59
2023/04/25 10:52:42;;;;;;;8.75;3.60;;;;;;;;;;5013349;28;20031;-59
2023/04/25 10:55:08;;;;;;;4.70;2.47;;;;;;;;;;5015419;28;20073;-59
2023/04/25 10:57:39;;;;;;;5.97;2.65;;;;;;;;;;5016742;28;20044;-59
2023/04/25 11:00:14;;;;;;;6.18;3.78;;;;;;;;;;5017278;28;20507;-59
2023/04/25 11:02:45;;;;;;;3.90;2.42;;;;;;;;;;5015979;28;20042;-59
2023/04/25 11:05:16;;;;;;;4.63;2.55;;;;;;;;;;5016988;28;20106;-60
2023/04/25 11:07:51;;;;;;;4.97;2.85;;;;;;;;;;5016522;28;20042;-59
2023/04/25 11:10:18;;;;;;;8.60;2.72;;;;;;;;;;5015949;28;20053;-59
2023/04/25 11:12:46;;;;;;;4.72;2.85;;;;;;;;;;5015963;28;20054;-59
2023/04/25 11:15:12;;;;;;;3.72;2.72;;;;;;;;;;5015866;28;20049;-59
2023/04/25 11:17:40;;;;;;;5.93;2.17;;;;;;;;;;5023858;28;20038;-59
2023/04/25 11:20:09;;;;;;;5.22;2.85;;;;;;;;;;5016553;28;20080;-59
2023/04/25 11:22:35;;;;;;;4.18;2.33;;;;;;;;;;5008054;28;20463;-60
2023/04/25 11:25:05;;;;;;;4.30;2.47;;;;;;;;;;5016667;28;20041;-60
2023/04/25 11:27:31;;;;;;;8.60;2.90;;;;;;;;;;5016722;28;20041;-59
2023/04/25 11:29:57;;;;;;;5.07;2.50;;;;;;;;;;5015238;28;20077;-60
2023/04/25 11:32:23;;;;;;;4.97;2.50;;;;;;;;;;5016404;28;20038;-60
2023/04/25 11:34:49;;;;;;;4.22;2.72;;;;;;;;;;5016069;28;20093;-59
2023/04/25 11:37:16;;;;;;;4.28;2.38;;;;;;;;;;5016594;28;20053;-59
2023/04/25 11:39:46;;;;;;;5.38;2.63;;;;;;;;;;5016384;28;20046;-60
2023/04/25 11:42:12;;;;;;;3.83;2.03;;;;;;;;;;5015798;28;20077;-59
2023/04/25 11:44:39;;;;;;;5.85;2.20;;;;;;;;;;5014767;28;20068;-59
2023/04/25 11:47:05;;;;;;;3.97;2.70;;;;;;;;;;5015599;28;20033;-58
2023/04/25 11:49:32;;;;;;;4.63;2.28;;;;;;;;;;5016431;28;20883;-59
2023/04/25 11:51:58;;;;;;;4.50;2.08;;;;;;;;;;5015836;28;20056;-59
2023/04/25 11:54:24;;;;;;;4.90;2.42;;;;;;;;;;5015778;28;20150;-58
2023/04/25 11:56:50;;;;;;;4.22;2.47;;;;;;;;;;5016477;28;20146;-59
2023/04/25 11:59:16;;;;;;;7.88;3.53;;;;;;;;;;5047143;28;20092;-58
2023/04/25 12:01:48;;;;;;;6.97;2.55;;;;;;;;;;5016502;28;20041;-58
2023/04/25 12:04:18;;;;;;;12.85;2.45;;;;;;;;;;5014533;28;20147;-58
2023/04/25 12:06:49;;;;;;;3.28;2.13;;;;;;;;;;5015828;28;20572;-59
2023/04/25 12:09:17;;;;;;;3.40;1.85;;;;;;;;;;5015312;28;20528;-59
2023/04/25 12:11:53;;;;;;;5.47;2.42;;;;;;;;;;5015478;28;20042;-59
2023/04/25 12:14:24;;;;;;;5.30;2.08;;;;;;;;;;5045911;28;20045;-59
2023/04/25 12:16:54;;;;;;;8.55;2.67;;;;;;;;;;5015332;28;20042;-59
2023/04/25 12:19:20;;;;;;;7.00;2.83;;;;;;;;;;5014545;28;20523;-59
2023/04/25 12:21:47;;;;;;;4.43;2.00;;;;;;;;;;5013409;28;20149;-59
2023/04/25 12:24:26;;;;;;;12.38;2.42;;;;;;;;;;5031635;28;20038;-59
2023/04/25 12:27:02;;;;;;;4.57;2.33;;;;;;;;;;5014107;28;21933;-59
2023/04/25 12:29:30;;;;;;;4.60;2.58;;;;;;;;;;5016000;28;20050;-59
2023/04/25 12:31:56;;;;;;;3.70;2.35;;;;;;;;;;5015015;28;21309;-59
2023/04/25 12:34:23;;;;;;;11.15;3.15;;;;;;;;;;5015961;28;20038;-59
2023/04/25 12:36:49;;;;;;;5.30;2.40;;;;;;;;;;5016237;28;20052;-59
2023/04/25 12:39:16;;;;;;;8.35;2.35;;;;;;;;;;5015501;28;20038;-59
2023/04/25 12:41:42;;;;;;;12.35;3.30;;;;;;;;;;5015738;28;20141;-59
2023/04/25 12:44:08;;;;;;;6.25;2.30;;;;;;;;;;5015231;28;20050;-59
2023/04/25 12:46:35;;;;;;;3.58;2.28;;;;;;;;;;5046742;28;20170;-59
2023/04/25 12:49:03;;;;;;;5.43;2.38;;;;;;;;;;5015324;28;20068;-59
2023/04/25 12:51:29;;;;;;;8.43;3.85;;;;;;;;;;5015123;28;20116;-59
2023/04/25 12:53:55;;;;;;;6.30;2.30;;;;;;;;;;5015313;28;20045;-59
2023/04/25 12:56:21;;;;;;;8.77;2.40;;;;;;;;;;5015331;28;20038;-59
2023/04/25 12:58:48;;;;;;;4.10;2.60;;;;;;;;;;5015109;28;20046;-59
2023/04/25 13:01:14;;;;;;;2.70;1.98;;;;;;;;;;5014705;28;20087;-59
2023/04/25 13:03:40;;;;;;;4.90;2.22;;;;;;;;;;5014609;28;20042;-57
2023/04/25 13:06:07;;;;;;;3.70;1.67;;;;;;;;;;5015196;28;20468;-58
2023/04/25 13:08:33;;;;;;;6.45;3.42;;;;;;;;;;5015359;28;20128;-57
2023/04/25 13:11:00;;;;;;;4.45;2.22;;;;;;;;;;5014372;28;20555;-57
2023/04/25 13:13:27;;;;;;;2.70;1.50;;;;;;;;;;5014247;28;20048;-57
2023/04/25 13:15:53;;;;;;;6.25;2.50;;;;;;;;;;5015595;28;21156;-57
2023/04/25 13:18:19;;;;;;;2.97;2.28;;;;;;;;;;5012456;28;20042;-57
2023/04/25 13:20:46;;;;;;;3.40;1.90;;;;;;;;;;5014227;28;20117;-57
2023/04/25 13:23:12;;;;;;;7.70;2.60;;;;;;;;;;5015015;28;20053;-57
2023/04/25 13:25:38;;;;;;;8.10;2.08;;;;;;;;;;5014055;28;20042;-57
2023/04/25 13:28:04;;;;;;;3.78;2.08;;;;;;;;;;5015666;28;20045;-58
2023/04/25 13:30:30;;;;;;;5.78;2.92;;;;;;;;;;5013745;28;20046;-58
2023/04/25 13:32:57;;;;;;;7.00;2.63;;;;;;;;;;5013773;28;20511;-58
2023/04/25 13:35:23;;;;;;;7.07;2.70;;;;;;;;;;5013534;28;20038;-58
2023/04/25 13:37:49;;;;;;;6.00;2.45;;;;;;;;;;5014332;28;20136;-58
2023/04/25 13:40:16;;;;;;;7.38;2.72;;;;;;;;;;5013792;28;20043;-58
2023/04/25 13:42:44;;;;;;;6.28;2.10;;;;;;;;;;5014071;28;20058;-58
2023/04/25 13:45:10;;;;;;;8.63;2.30;;;;;;;;;;5013619;28;20054;-58
2023/04/25 13:47:36;;;;;;;6.70;1.98;;;;;;;;;;5013825;28;20622;-58
2023/04/25 13:50:03;;;;;;;2.60;1.60;;;;;;;;;;5013699;28;20046;-58
2023/04/25 13:52:29;;;;;;;7.38;3.03;;;;;;;;;;5014020;28;20953;-58
2023/04/25 13:54:55;;;;;;;5.28;2.10;;;;;;;;;;5014178;28;20046;-58
2023/04/25 13:57:21;;;;;;;5.00;1.98;;;;;;;;;;5014013;28;20133;-58
2023/04/25 13:59:47;;;;;;;4.03;1.92;;;;;;;;;;5013541;28;20120;-58
2023/04/25 14:02:13;;;;;;;7.03;1.83;;;;;;;;;;5013736;28;20049;-58
2023/04/25 14:04:39;;;;;;;7.60;1.80;;;;;;;;;;5029325;28;20073;-58
2023/04/25 14:07:06;;;;;;;2.88;2.10;;;;;;;;;;5013240;28;20046;-58
2023/04/25 14:09:32;;;;;;;4.35;1.70;;;;;;;;;;5013530;28;20053;-58
2023/04/25 14:11:58;;;;;;;6.38;2.05;;;;;;;;;;5029638;28;20037;-57
2023/04/25 14:14:25;;;;;;;3.83;2.20;;;;;;;;;;5014127;28;20514;-58
2023/04/25 14:16:53;;;;;;;3.00;1.90;;;;;;;;;;5012203;28;20096;-58
2023/04/25 14:19:20;;;;;;;3.80;1.88;;;;;;;;;;5013735;28;20180;-58
2023/04/25 14:21:46;;;;;;;4.82;2.45;;;;;;;;;;5013947;28;20049;-58
2023/04/25 14:24:12;;;;;;;5.03;2.40;;;;;;;;;;5013185;28;20046;-58
2023/04/25 14:26:38;;;;;;;4.80;1.90;;;;;;;;;;5014735;28;20061;-58
2023/04/25 14:29:08;;;;;;;5.75;2.42;;;;;;;;;;5032255;28;20038;-58
2023/04/25 14:31:34;;;;;;;4.07;1.70;;;;;;;;;;5016691;28;20046;-58
2023/04/25 14:34:00;;;;;;;3.45;1.88;;;;;;;;;;5017812;28;20069;-57
2023/04/25 14:36:27;;;;;;;5.95;1.88;;;;;;;;;;5016945;28;20077;-57
2023/04/25 14:38:53;;;;;;;5.50;2.28;;;;;;;;;;5017210;28;20518;-57